sensor_id;sensor_type;location;lat;lon;timestamp;temperature;humidity
48734;DHT22;34530;52.084;5.146;2023-03-23T00:01:19;16.60;76.30
48734;DHT22;34530;52.084;5.146;2023-03-23T00:03:50;16.60;76.30
48734;DHT22;34530;52.084;5.146;2023-03-23T00:06:17;16.60;76.30
48734;DHT22;34530;52.084;5.146;2023-03-23T00:08:48;16.60;76.30
48734;DHT22;34530;52.084;5.146;2023-03-23T00:11:19;16.60;76.30
48734;DHT22;34530;52.084;5.146;2023-03-23T00:13:50;16.60;76.30
48734;DHT22;34530;52.084;5.146;2023-03-23T00:16:23;16.60;76.40
48734;DHT22;34530;52.084;5.146;2023-03-23T00:19:00;16.60;76.30
48734;DHT22;34530;52.084;5.146;2023-03-23T00:21:28;16.60;76.30
48734;DHT22;34530;52.084;5.146;2023-03-23T00:24:06;16.60;76.30
48734;DHT22;34530;52.084;5.146;2023-03-23T00:26:36;16.50;76.30
48734;DHT22;34530;52.084;5.146;2023-03-23T00:29:04;16.60;76.30
48734;DHT22;34530;52.084;5.146;2023-03-23T00:31:31;16.50;76.30
48734;DHT22;34530;52.084;5.146;2023-03-23T00:33:59;16.50;76.30
48734;DHT22;34530;52.084;5.146;2023-03-23T00:36:27;16.50;76.30
48734;DHT22;34530;52.084;5.146;2023-03-23T00:38:53;16.50;76.30
48734;DHT22;34530;52.084;5.146;2023-03-23T00:41:19;16.60;76.30
48734;DHT22;34530;52.084;5.146;2023-03-23T00:43:45;16.50;76.20
48734;DHT22;34530;52.084;5.146;2023-03-23T00:46:11;16.50;76.30
48734;DHT22;34530;52.084;5.146;2023-03-23T00:48:37;16.50;76.20
48734;DHT22;34530;52.084;5.146;2023-03-23T00:51:10;16.50;76.20
48734;DHT22;34530;52.084;5.146;2023-03-23T00:53:37;16.50;76.20
48734;DHT22;34530;52.084;5.146;2023-03-23T00:56:03;16.50;76.20
48734;DHT22;34530;52.084;5.146;2023-03-23T00:58:30;16.50;76.20
48734;DHT22;34530;52.084;5.146;2023-03-23T01:00:55;16.50;76.90
48734;DHT22;34530;52.084;5.146;2023-03-23T01:03:22;16.50;76.20
48734;DHT22;34530;52.084;5.146;2023-03-23T01:05:51;16.50;76.20
48734;DHT22;34530;52.084;5.146;2023-03-23T01:08:17;16.50;76.20
48734;DHT22;34530;52.084;5.146;2023-03-23T01:10:46;16.50;76.20
48734;DHT22;34530;52.084;5.146;2023-03-23T01:13:12;16.50;76.20
48734;DHT22;34530;52.084;5.146;2023-03-23T01:15:38;16.50;76.90
48734;DHT22;34530;52.084;5.146;2023-03-23T01:18:04;16.50;76.20
48734;DHT22;34530;52.084;5.146;2023-03-23T01:20:30;16.50;76.20
48734;DHT22;34530;52.084;5.146;2023-03-23T01:22:59;16.50;76.10
48734;DHT22;34530;52.084;5.146;2023-03-23T01:25:32;16.50;76.10
48734;DHT22;34530;52.084;5.146;2023-03-23T01:28:00;16.50;76.10
48734;DHT22;34530;52.084;5.146;2023-03-23T01:30:26;16.50;76.10
48734;DHT22;34530;52.084;5.146;2023-03-23T01:32:52;16.50;76.10
48734;DHT22;34530;52.084;5.146;2023-03-23T01:35:19;16.50;76.10
48734;DHT22;34530;52.084;5.146;2023-03-23T01:37:44;16.50;76.10
48734;DHT22;34530;52.084;5.146;2023-03-23T01:40:11;16.50;76.10
48734;DHT22;34530;52.084;5.146;2023-03-23T01:42:38;16.50;76.00
48734;DHT22;34530;52.084;5.146;2023-03-23T01:48:18;16.50;76.00
48734;DHT22;34530;52.084;5.146;2023-03-23T01:50:53;16.50;75.90
48734;DHT22;34530;52.084;5.146;2023-03-23T01:53:22;16.50;76.10
48734;DHT22;34530;52.084;5.146;2023-03-23T01:55:51;16.50;76.10
48734;DHT22;34530;52.084;5.146;2023-03-23T01:58:21;16.40;76.00
48734;DHT22;34530;52.084;5.146;2023-03-23T02:00:51;16.40;75.90
48734;DHT22;34530;52.084;5.146;2023-03-23T02:03:19;16.50;76.00
48734;DHT22;34530;52.084;5.146;2023-03-23T02:05:45;16.50;76.00
48734;DHT22;34530;52.084;5.146;2023-03-23T02:08:11;16.40;75.90
48734;DHT22;34530;52.084;5.146;2023-03-23T02:10:39;16.50;76.00
48734;DHT22;34530;52.084;5.146;2023-03-23T02:13:07;16.50;76.00
48734;DHT22;34530;52.084;5.146;2023-03-23T02:16:20;16.50;75.90
48734;DHT22;34530;52.084;5.146;2023-03-23T02:21:34;16.40;75.80
48734;DHT22;34530;52.084;5.146;2023-03-23T02:26:38;16.40;75.80
48734;DHT22;34530;52.084;5.146;2023-03-23T02:29:24;16.40;75.80
48734;DHT22;34530;52.084;5.146;2023-03-23T02:32:10;16.40;75.80
48734;DHT22;34530;52.084;5.146;2023-03-23T02:34:38;16.40;75.80
48734;DHT22;34530;52.084;5.146;2023-03-23T02:37:11;16.40;75.80
48734;DHT22;34530;52.084;5.146;2023-03-23T02:39:51;16.40;75.80
48734;DHT22;34530;52.084;5.146;2023-03-23T02:42:24;16.40;75.80
48734;DHT22;34530;52.084;5.146;2023-03-23T02:44:52;16.40;75.80
48734;DHT22;34530;52.084;5.146;2023-03-23T02:47:22;16.40;75.80
48734;DHT22;34530;52.084;5.146;2023-03-23T02:49:52;16.40;75.70
48734;DHT22;34530;52.084;5.146;2023-03-23T02:52:25;16.40;75.70
48734;DHT22;34530;52.084;5.146;2023-03-23T02:54:53;16.40;75.70
48734;DHT22;34530;52.084;5.146;2023-03-23T02:57:20;16.40;75.70
48734;DHT22;34530;52.084;5.146;2023-03-23T02:59:46;16.40;76.50
48734;DHT22;34530;52.084;5.146;2023-03-23T03:02:12;16.40;75.70
48734;DHT22;34530;52.084;5.146;2023-03-23T03:04:41;16.40;75.70
48734;DHT22;34530;52.084;5.146;2023-03-23T03:10:09;16.40;75.60
48734;DHT22;34530;52.084;5.146;2023-03-23T03:18:09;16.40;75.70
48734;DHT22;34530;52.084;5.146;2023-03-23T03:20:43;16.40;75.60
48734;DHT22;34530;52.084;5.146;2023-03-23T03:23:10;16.40;75.70
48734;DHT22;34530;52.084;5.146;2023-03-23T03:25:39;16.40;75.60
48734;DHT22;34530;52.084;5.146;2023-03-23T03:28:07;16.40;75.70
48734;DHT22;34530;52.084;5.146;2023-03-23T03:30:34;16.40;75.60
48734;DHT22;34530;52.084;5.146;2023-03-23T03:33:01;16.40;75.60
48734;DHT22;34530;52.084;5.146;2023-03-23T03:35:29;16.40;75.60
48734;DHT22;34530;52.084;5.146;2023-03-23T03:37:56;16.40;75.60
48734;DHT22;34530;52.084;5.146;2023-03-23T03:40:23;16.40;75.60
48734;DHT22;34530;52.084;5.146;2023-03-23T03:42:49;16.40;75.60
48734;DHT22;34530;52.084;5.146;2023-03-23T03:45:18;16.30;75.50
48734;DHT22;34530;52.084;5.146;2023-03-23T03:47:44;16.40;75.50
48734;DHT22;34530;52.084;5.146;2023-03-23T03:50:10;16.40;75.50
48734;DHT22;34530;52.084;5.146;2023-03-23T03:52:36;16.40;75.40
48734;DHT22;34530;52.084;5.146;2023-03-23T03:55:04;16.40;75.40
48734;DHT22;34530;52.084;5.146;2023-03-23T03:57:30;16.40;75.40
48734;DHT22;34530;52.084;5.146;2023-03-23T03:59:55;16.40;75.40
48734;DHT22;34530;52.084;5.146;2023-03-23T04:02:22;16.40;75.40
48734;DHT22;34530;52.084;5.146;2023-03-23T04:04:48;16.40;75.40
48734;DHT22;34530;52.084;5.146;2023-03-23T04:07:15;16.40;75.30
48734;DHT22;34530;52.084;5.146;2023-03-23T04:09:42;16.40;75.30
48734;DHT22;34530;52.084;5.146;2023-03-23T04:12:08;16.40;75.30
48734;DHT22;34530;52.084;5.146;2023-03-23T04:14:34;16.40;75.30
48734;DHT22;34530;52.084;5.146;2023-03-23T04:17:00;16.40;75.30
48734;DHT22;34530;52.084;5.146;2023-03-23T04:19:26;16.40;75.30
48734;DHT22;34530;52.084;5.146;2023-03-23T04:21:54;16.40;75.30
48734;DHT22;34530;52.084;5.146;2023-03-23T04:24:20;16.40;75.20
48734;DHT22;34530;52.084;5.146;2023-03-23T04:26:49;16.40;75.20
48734;DHT22;34530;52.084;5.146;2023-03-23T04:29:17;16.40;75.20
48734;DHT22;34530;52.084;5.146;2023-03-23T04:31:43;16.40;75.20
48734;DHT22;34530;52.084;5.146;2023-03-23T04:34:10;16.40;75.20
48734;DHT22;34530;52.084;5.146;2023-03-23T04:36:39;16.40;75.20
48734;DHT22;34530;52.084;5.146;2023-03-23T04:39:06;16.40;75.20
48734;DHT22;34530;52.084;5.146;2023-03-23T04:41:38;16.40;75.20
48734;DHT22;34530;52.084;5.146;2023-03-23T04:44:03;16.40;75.20
48734;DHT22;34530;52.084;5.146;2023-03-23T04:46:29;16.40;75.10
48734;DHT22;34530;52.084;5.146;2023-03-23T04:48:56;16.40;75.10
48734;DHT22;34530;52.084;5.146;2023-03-23T04:51:24;16.40;75.10
48734;DHT22;34530;52.084;5.146;2023-03-23T04:53:51;16.40;75.10
48734;DHT22;34530;52.084;5.146;2023-03-23T04:56:17;16.30;75.00
48734;DHT22;34530;52.084;5.146;2023-03-23T04:58:44;16.40;75.10
48734;DHT22;34530;52.084;5.146;2023-03-23T05:01:10;16.40;75.80
48734;DHT22;34530;52.084;5.146;2023-03-23T05:03:39;16.40;75.00
48734;DHT22;34530;52.084;5.146;2023-03-23T05:06:06;16.40;75.00
48734;DHT22;34530;52.084;5.146;2023-03-23T05:08:32;16.40;75.00
48734;DHT22;34530;52.084;5.146;2023-03-23T05:11:00;16.30;74.90
48734;DHT22;34530;52.084;5.146;2023-03-23T05:13:27;16.30;74.90
48734;DHT22;34530;52.084;5.146;2023-03-23T05:15:53;16.30;74.90
48734;DHT22;34530;52.084;5.146;2023-03-23T05:18:19;16.30;74.90
48734;DHT22;34530;52.084;5.146;2023-03-23T05:20:45;16.30;75.70
48734;DHT22;34530;52.084;5.146;2023-03-23T05:23:11;16.30;74.90
48734;DHT22;34530;52.084;5.146;2023-03-23T05:25:38;16.30;74.90
48734;DHT22;34530;52.084;5.146;2023-03-23T05:28:08;16.30;74.90
48734;DHT22;34530;52.084;5.146;2023-03-23T05:30:34;16.30;74.90
48734;DHT22;34530;52.084;5.146;2023-03-23T05:33:00;16.40;74.90
48734;DHT22;34530;52.084;5.146;2023-03-23T05:35:26;16.30;74.80
48734;DHT22;34530;52.084;5.146;2023-03-23T05:37:52;16.30;74.90
48734;DHT22;34530;52.084;5.146;2023-03-23T05:40:19;16.30;74.80
48734;DHT22;34530;52.084;5.146;2023-03-23T05:42:45;16.30;74.80
48734;DHT22;34530;52.084;5.146;2023-03-23T05:45:12;16.30;74.80
48734;DHT22;34530;52.084;5.146;2023-03-23T05:47:39;16.30;74.80
48734;DHT22;34530;52.084;5.146;2023-03-23T05:50:07;16.30;74.80
48734;DHT22;34530;52.084;5.146;2023-03-23T05:52:34;16.30;74.80
48734;DHT22;34530;52.084;5.146;2023-03-23T05:55:01;16.30;74.80
48734;DHT22;34530;52.084;5.146;2023-03-23T05:57:29;16.30;74.70
48734;DHT22;34530;52.084;5.146;2023-03-23T05:59:55;16.30;74.70
48734;DHT22;34530;52.084;5.146;2023-03-23T06:02:23;16.30;74.70
48734;DHT22;34530;52.084;5.146;2023-03-23T06:04:49;16.30;74.70
48734;DHT22;34530;52.084;5.146;2023-03-23T06:07:15;16.30;74.70
48734;DHT22;34530;52.084;5.146;2023-03-23T06:09:41;16.30;74.70
48734;DHT22;34530;52.084;5.146;2023-03-23T06:12:08;16.30;74.70
48734;DHT22;34530;52.084;5.146;2023-03-23T06:14:35;16.30;74.70
48734;DHT22;34530;52.084;5.146;2023-03-23T06:17:00;16.30;74.70
48734;DHT22;34530;52.084;5.146;2023-03-23T06:19:26;16.30;74.80
48734;DHT22;34530;52.084;5.146;2023-03-23T06:21:54;16.30;74.70
48734;DHT22;34530;52.084;5.146;2023-03-23T06:24:19;16.30;74.70
48734;DHT22;34530;52.084;5.146;2023-03-23T06:26:46;16.30;74.80
48734;DHT22;34530;52.084;5.146;2023-03-23T06:29:13;16.30;74.70
48734;DHT22;34530;52.084;5.146;2023-03-23T06:31:42;16.30;74.70
48734;DHT22;34530;52.084;5.146;2023-03-23T06:34:08;16.30;74.70
48734;DHT22;34530;52.084;5.146;2023-03-23T06:36:35;16.30;74.70
48734;DHT22;34530;52.084;5.146;2023-03-23T06:39:02;16.30;75.50
48734;DHT22;34530;52.084;5.146;2023-03-23T06:41:30;16.30;74.80
48734;DHT22;34530;52.084;5.146;2023-03-23T06:43:56;16.30;74.70
48734;DHT22;34530;52.084;5.146;2023-03-23T06:46:22;16.30;74.70
48734;DHT22;34530;52.084;5.146;2023-03-23T06:48:48;16.30;74.70
48734;DHT22;34530;52.084;5.146;2023-03-23T06:51:15;16.30;74.70
48734;DHT22;34530;52.084;5.146;2023-03-23T06:53:41;16.30;75.50
48734;DHT22;34530;52.084;5.146;2023-03-23T06:56:07;16.30;74.70
48734;DHT22;34530;52.084;5.146;2023-03-23T06:58:33;16.30;74.70
48734;DHT22;34530;52.084;5.146;2023-03-23T07:00:59;16.30;74.70
48734;DHT22;34530;52.084;5.146;2023-03-23T07:03:24;16.30;74.70
48734;DHT22;34530;52.084;5.146;2023-03-23T07:05:51;16.30;74.60
48734;DHT22;34530;52.084;5.146;2023-03-23T07:08:17;16.30;74.70
48734;DHT22;34530;52.084;5.146;2023-03-23T07:10:42;16.30;74.70
48734;DHT22;34530;52.084;5.146;2023-03-23T07:13:09;16.30;74.70
48734;DHT22;34530;52.084;5.146;2023-03-23T07:15:34;16.30;74.70
48734;DHT22;34530;52.084;5.146;2023-03-23T07:18:01;16.30;74.70
48734;DHT22;34530;52.084;5.146;2023-03-23T07:20:26;16.30;74.70
48734;DHT22;34530;52.084;5.146;2023-03-23T07:22:53;16.30;74.70
48734;DHT22;34530;52.084;5.146;2023-03-23T07:25:19;16.30;74.60
48734;DHT22;34530;52.084;5.146;2023-03-23T07:27:45;16.30;74.60
48734;DHT22;34530;52.084;5.146;2023-03-23T07:30:12;16.30;74.60
48734;DHT22;34530;52.084;5.146;2023-03-23T07:32:38;16.30;74.70
48734;DHT22;34530;52.084;5.146;2023-03-23T07:35:03;16.30;74.70
48734;DHT22;34530;52.084;5.146;2023-03-23T07:37:29;16.30;74.60
48734;DHT22;34530;52.084;5.146;2023-03-23T07:39:55;16.30;74.70
48734;DHT22;34530;52.084;5.146;2023-03-23T07:42:21;16.30;74.60
48734;DHT22;34530;52.084;5.146;2023-03-23T07:44:46;16.30;74.60
48734;DHT22;34530;52.084;5.146;2023-03-23T07:47:12;16.30;74.60
48734;DHT22;34530;52.084;5.146;2023-03-23T07:49:38;16.30;74.60
48734;DHT22;34530;52.084;5.146;2023-03-23T07:52:04;16.30;74.60
48734;DHT22;34530;52.084;5.146;2023-03-23T07:54:30;16.30;74.60
48734;DHT22;34530;52.084;5.146;2023-03-23T07:56:56;16.30;74.60
48734;DHT22;34530;52.084;5.146;2023-03-23T07:59:22;16.30;74.60
48734;DHT22;34530;52.084;5.146;2023-03-23T08:01:47;16.30;74.60
48734;DHT22;34530;52.084;5.146;2023-03-23T08:04:13;16.30;74.60
48734;DHT22;34530;52.084;5.146;2023-03-23T08:06:40;16.30;74.60
48734;DHT22;34530;52.084;5.146;2023-03-23T08:09:07;16.30;74.60
48734;DHT22;34530;52.084;5.146;2023-03-23T08:11:38;16.30;74.60
48734;DHT22;34530;52.084;5.146;2023-03-23T08:14:04;16.30;74.60
48734;DHT22;34530;52.084;5.146;2023-03-23T08:16:31;16.30;74.60
48734;DHT22;34530;52.084;5.146;2023-03-23T08:18:57;16.30;74.60
48734;DHT22;34530;52.084;5.146;2023-03-23T08:21:23;16.30;74.60
48734;DHT22;34530;52.084;5.146;2023-03-23T08:23:49;16.30;74.60
48734;DHT22;34530;52.084;5.146;2023-03-23T08:26:15;16.30;74.60
48734;DHT22;34530;52.084;5.146;2023-03-23T08:28:42;16.30;74.60
48734;DHT22;34530;52.084;5.146;2023-03-23T08:31:14;16.40;74.60
48734;DHT22;34530;52.084;5.146;2023-03-23T08:33:40;16.30;74.60
48734;DHT22;34530;52.084;5.146;2023-03-23T08:36:07;16.30;74.60
48734;DHT22;34530;52.084;5.146;2023-03-23T08:38:34;16.40;74.60
48734;DHT22;34530;52.084;5.146;2023-03-23T08:41:01;16.40;74.60
48734;DHT22;34530;52.084;5.146;2023-03-23T08:43:28;16.40;74.70
48734;DHT22;34530;52.084;5.146;2023-03-23T08:45:54;16.40;74.60
48734;DHT22;34530;52.084;5.146;2023-03-23T08:48:21;16.40;74.70
48734;DHT22;34530;52.084;5.146;2023-03-23T08:50:48;16.40;74.70
48734;DHT22;34530;52.084;5.146;2023-03-23T08:53:14;16.40;74.70
48734;DHT22;34530;52.084;5.146;2023-03-23T08:55:39;16.40;74.80
48734;DHT22;34530;52.084;5.146;2023-03-23T08:58:05;16.40;74.80
48734;DHT22;34530;52.084;5.146;2023-03-23T09:00:31;16.40;74.90
48734;DHT22;34530;52.084;5.146;2023-03-23T09:02:58;16.40;74.80
48734;DHT22;34530;52.084;5.146;2023-03-23T09:05:25;16.50;74.90
48734;DHT22;34530;52.084;5.146;2023-03-23T09:07:54;16.50;74.80
48734;DHT22;34530;52.084;5.146;2023-03-23T09:10:21;16.50;74.80
48734;DHT22;34530;52.084;5.146;2023-03-23T09:12:48;16.50;74.80
48734;DHT22;34530;52.084;5.146;2023-03-23T09:15:16;16.60;74.80
48734;DHT22;34530;52.084;5.146;2023-03-23T09:17:45;16.60;74.70
48734;DHT22;34530;52.084;5.146;2023-03-23T09:20:13;16.60;74.60
48734;DHT22;34530;52.084;5.146;2023-03-23T09:22:44;16.60;74.60
48734;DHT22;34530;52.084;5.146;2023-03-23T09:25:12;16.70;74.60
48734;DHT22;34530;52.084;5.146;2023-03-23T09:27:39;16.70;74.40
48734;DHT22;34530;52.084;5.146;2023-03-23T09:30:08;16.70;74.20
48734;DHT22;34530;52.084;5.146;2023-03-23T09:32:36;16.70;74.10
48734;DHT22;34530;52.084;5.146;2023-03-23T09:35:02;16.80;74.00
48734;DHT22;34530;52.084;5.146;2023-03-23T09:37:29;16.80;73.80
48734;DHT22;34530;52.084;5.146;2023-03-23T09:39:55;16.80;73.60
48734;DHT22;34530;52.084;5.146;2023-03-23T09:45:27;16.90;73.40
48734;DHT22;34530;52.084;5.146;2023-03-23T09:50:55;16.80;73.00
48734;DHT22;34530;52.084;5.146;2023-03-23T09:53:27;16.80;73.00
48734;DHT22;34530;52.084;5.146;2023-03-23T09:56:01;16.80;72.80
48734;DHT22;34530;52.084;5.146;2023-03-23T09:58:35;16.80;72.80
48734;DHT22;34530;52.084;5.146;2023-03-23T10:01:17;16.80;72.60
48734;DHT22;34530;52.084;5.146;2023-03-23T10:03:45;16.80;72.50
48734;DHT22;34530;52.084;5.146;2023-03-23T10:06:16;16.80;72.40
48734;DHT22;34530;52.084;5.146;2023-03-23T10:08:49;16.80;72.30
48734;DHT22;34530;52.084;5.146;2023-03-23T10:11:55;16.90;72.20
48734;DHT22;34530;52.084;5.146;2023-03-23T10:15:24;16.90;72.10
48734;DHT22;34530;52.084;5.146;2023-03-23T10:17:28;16.90;72.10
48734;DHT22;34530;52.084;5.146;2023-03-23T10:25:42;16.90;71.50
48734;DHT22;34530;52.084;5.146;2023-03-23T10:28:12;17.00;71.40
48734;DHT22;34530;52.084;5.146;2023-03-23T10:30:45;17.00;71.20
48734;DHT22;34530;52.084;5.146;2023-03-23T10:33:17;17.00;71.00
48734;DHT22;34530;52.084;5.146;2023-03-23T10:38:47;17.00;70.60
48734;DHT22;34530;52.084;5.146;2023-03-23T10:41:16;17.00;70.50
48734;DHT22;34530;52.084;5.146;2023-03-23T10:43:44;17.00;70.30
48734;DHT22;34530;52.084;5.146;2023-03-23T10:46:42;17.00;70.20
48734;DHT22;34530;52.084;5.146;2023-03-23T10:49:38;17.00;70.00
48734;DHT22;34530;52.084;5.146;2023-03-23T10:52:27;17.00;70.00
48734;DHT22;34530;52.084;5.146;2023-03-23T10:55:15;17.00;69.80
48734;DHT22;34530;52.084;5.146;2023-03-23T10:57:46;17.10;69.80
48734;DHT22;34530;52.084;5.146;2023-03-23T11:03:01;17.00;69.60
48734;DHT22;34530;52.084;5.146;2023-03-23T11:05:59;17.10;69.50
48734;DHT22;34530;52.084;5.146;2023-03-23T11:08:27;17.10;69.50
48734;DHT22;34530;52.084;5.146;2023-03-23T11:10:59;17.10;69.50
48734;DHT22;34530;52.084;5.146;2023-03-23T11:13:32;17.10;69.20
48734;DHT22;34530;52.084;5.146;2023-03-23T11:15:59;17.10;69.10
48734;DHT22;34530;52.084;5.146;2023-03-23T11:18:46;17.10;69.10
48734;DHT22;34530;52.084;5.146;2023-03-23T11:21:13;17.10;68.80
48734;DHT22;34530;52.084;5.146;2023-03-23T11:23:41;17.10;68.90
48734;DHT22;34530;52.084;5.146;2023-03-23T11:26:21;17.10;68.80
48734;DHT22;34530;52.084;5.146;2023-03-23T11:28:58;17.10;68.80
48734;DHT22;34530;52.084;5.146;2023-03-23T11:31:28;17.10;68.70
48734;DHT22;34530;52.084;5.146;2023-03-23T11:36:48;17.10;68.60
48734;DHT22;34530;52.084;5.146;2023-03-23T11:39:26;17.10;68.60
48734;DHT22;34530;52.084;5.146;2023-03-23T11:41:54;17.10;68.50
48734;DHT22;34530;52.084;5.146;2023-03-23T11:44:22;17.10;68.50
48734;DHT22;34530;52.084;5.146;2023-03-23T11:50:00;17.10;68.30
48734;DHT22;34530;52.084;5.146;2023-03-23T11:55:23;17.10;68.00
48734;DHT22;34530;52.084;5.146;2023-03-23T11:57:51;17.10;68.00
48734;DHT22;34530;52.084;5.146;2023-03-23T12:00:21;17.10;67.90
48734;DHT22;34530;52.084;5.146;2023-03-23T12:03:07;17.10;67.80
48734;DHT22;34530;52.084;5.146;2023-03-23T12:08:35;17.10;67.70
48734;DHT22;34530;52.084;5.146;2023-03-23T12:20:03;17.10;67.50
48734;DHT22;34530;52.084;5.146;2023-03-23T12:23:05;17.10;67.50
48734;DHT22;34530;52.084;5.146;2023-03-23T12:37:37;17.10;67.40
48734;DHT22;34530;52.084;5.146;2023-03-23T12:40:34;17.10;67.30
48734;DHT22;34530;52.084;5.146;2023-03-23T12:43:21;17.20;67.40
48734;DHT22;34530;52.084;5.146;2023-03-23T12:49:11;17.20;67.30
48734;DHT22;34530;52.084;5.146;2023-03-23T12:54:47;17.20;67.30
48734;DHT22;34530;52.084;5.146;2023-03-23T12:58:07;17.20;67.40
48734;DHT22;34530;52.084;5.146;2023-03-23T13:00:28;17.20;67.30
48734;DHT22;34530;52.084;5.146;2023-03-23T13:03:13;17.20;67.30
48734;DHT22;34530;52.084;5.146;2023-03-23T13:08:36;17.20;67.30
48734;DHT22;34530;52.084;5.146;2023-03-23T13:11:12;17.30;67.40
48734;DHT22;34530;52.084;5.146;2023-03-23T13:13:47;17.30;68.20
48734;DHT22;34530;52.084;5.146;2023-03-23T13:16:44;17.30;67.50
48734;DHT22;34530;52.084;5.146;2023-03-23T13:21:45;17.30;67.60
48734;DHT22;34530;52.084;5.146;2023-03-23T13:24:21;17.30;67.60
48734;DHT22;34530;52.084;5.146;2023-03-23T13:26:50;17.40;67.60
48734;DHT22;34530;52.084;5.146;2023-03-23T13:29:20;17.40;67.70
48734;DHT22;34530;52.084;5.146;2023-03-23T13:31:50;17.40;67.60
48734;DHT22;34530;52.084;5.146;2023-03-23T13:34:17;17.30;67.50
48734;DHT22;34530;52.084;5.146;2023-03-23T13:36:56;17.40;67.60
48734;DHT22;34530;52.084;5.146;2023-03-23T13:39:25;17.40;67.50
48734;DHT22;34530;52.084;5.146;2023-03-23T14:05:38;17.40;67.40
48734;DHT22;34530;52.084;5.146;2023-03-23T14:08:21;17.50;67.60
48734;DHT22;34530;52.084;5.146;2023-03-23T14:10:59;17.50;67.60
48734;DHT22;34530;52.084;5.146;2023-03-23T14:13:32;17.50;67.60
48734;DHT22;34530;52.084;5.146;2023-03-23T14:16:01;17.50;67.70
48734;DHT22;34530;52.084;5.146;2023-03-23T14:18:32;17.50;67.70
48734;DHT22;34530;52.084;5.146;2023-03-23T14:21:00;17.50;67.60
48734;DHT22;34530;52.084;5.146;2023-03-23T14:23:26;17.50;67.70
48734;DHT22;34530;52.084;5.146;2023-03-23T14:26:15;17.50;67.70
48734;DHT22;34530;52.084;5.146;2023-03-23T14:28:44;17.50;67.70
48734;DHT22;34530;52.084;5.146;2023-03-23T14:33:42;17.60;68.60
48734;DHT22;34530;52.084;5.146;2023-03-23T14:36:08;17.60;67.90
48734;DHT22;34530;52.084;5.146;2023-03-23T14:38:33;17.60;67.90
48734;DHT22;34530;52.084;5.146;2023-03-23T14:41:01;17.60;68.00
48734;DHT22;34530;52.084;5.146;2023-03-23T14:43:28;17.50;67.90
48734;DHT22;34530;52.084;5.146;2023-03-23T14:45:59;17.60;68.00
48734;DHT22;34530;52.084;5.146;2023-03-23T14:48:26;17.60;68.00
48734;DHT22;34530;52.084;5.146;2023-03-23T14:50:56;17.60;68.00
48734;DHT22;34530;52.084;5.146;2023-03-23T14:53:24;17.60;68.00
48734;DHT22;34530;52.084;5.146;2023-03-23T14:55:52;17.60;68.10
48734;DHT22;34530;52.084;5.146;2023-03-23T14:58:21;17.60;68.10
48734;DHT22;34530;52.084;5.146;2023-03-23T15:03:48;17.70;68.10
48734;DHT22;34530;52.084;5.146;2023-03-23T15:06:17;17.60;68.20
48734;DHT22;34530;52.084;5.146;2023-03-23T15:08:45;17.60;68.20
48734;DHT22;34530;52.084;5.146;2023-03-23T15:13:47;17.70;68.20
48734;DHT22;34530;52.084;5.146;2023-03-23T15:16:24;17.60;68.20
48734;DHT22;34530;52.084;5.146;2023-03-23T15:18:56;17.70;68.30
48734;DHT22;34530;52.084;5.146;2023-03-23T15:21:34;17.70;68.30
48734;DHT22;34530;52.084;5.146;2023-03-23T15:24:01;17.70;68.30
48734;DHT22;34530;52.084;5.146;2023-03-23T15:26:43;17.60;68.30
48734;DHT22;34530;52.084;5.146;2023-03-23T15:29:17;17.70;68.20
48734;DHT22;34530;52.084;5.146;2023-03-23T15:31:46;17.70;68.30
48734;DHT22;34530;52.084;5.146;2023-03-23T15:34:28;17.70;68.30
48734;DHT22;34530;52.084;5.146;2023-03-23T15:37:02;17.70;68.30
48734;DHT22;34530;52.084;5.146;2023-03-23T15:39:29;17.70;68.40
48734;DHT22;34530;52.084;5.146;2023-03-23T15:41:57;17.70;68.40
48734;DHT22;34530;52.084;5.146;2023-03-23T15:44:32;17.70;68.40
48734;DHT22;34530;52.084;5.146;2023-03-23T15:47:19;17.70;68.30
48734;DHT22;34530;52.084;5.146;2023-03-23T15:49:46;17.70;68.30
48734;DHT22;34530;52.084;5.146;2023-03-23T15:52:13;17.70;68.40
48734;DHT22;34530;52.084;5.146;2023-03-23T15:54:46;17.70;68.40
48734;DHT22;34530;52.084;5.146;2023-03-23T15:57:12;17.70;68.30
48734;DHT22;34530;52.084;5.146;2023-03-23T15:59:37;17.70;68.30
48734;DHT22;34530;52.084;5.146;2023-03-23T16:02:03;17.70;68.40
48734;DHT22;34530;52.084;5.146;2023-03-23T16:04:29;17.70;68.40
48734;DHT22;34530;52.084;5.146;2023-03-23T16:06:56;17.80;68.40
48734;DHT22;34530;52.084;5.146;2023-03-23T16:09:23;17.80;68.40
48734;DHT22;34530;52.084;5.146;2023-03-23T16:11:49;17.80;68.50
48734;DHT22;34530;52.084;5.146;2023-03-23T16:14:15;17.80;68.40
48734;DHT22;34530;52.084;5.146;2023-03-23T16:16:46;17.80;68.40
48734;DHT22;34530;52.084;5.146;2023-03-23T16:19:13;17.80;68.40
48734;DHT22;34530;52.084;5.146;2023-03-23T16:21:40;17.80;68.50
48734;DHT22;34530;52.084;5.146;2023-03-23T16:24:06;17.80;68.50
48734;DHT22;34530;52.084;5.146;2023-03-23T16:26:32;17.80;68.40
48734;DHT22;34530;52.084;5.146;2023-03-23T16:28:58;17.80;68.40
48734;DHT22;34530;52.084;5.146;2023-03-23T16:31:24;17.80;68.50
48734;DHT22;34530;52.084;5.146;2023-03-23T16:33:50;17.80;68.40
48734;DHT22;34530;52.084;5.146;2023-03-23T16:36:15;17.70;68.40
48734;DHT22;34530;52.084;5.146;2023-03-23T16:38:41;17.80;68.50
48734;DHT22;34530;52.084;5.146;2023-03-23T16:41:07;17.80;68.50
48734;DHT22;34530;52.084;5.146;2023-03-23T16:43:34;17.80;68.50
48734;DHT22;34530;52.084;5.146;2023-03-23T16:45:59;17.80;68.50
48734;DHT22;34530;52.084;5.146;2023-03-23T16:48:25;17.80;68.50
48734;DHT22;34530;52.084;5.146;2023-03-23T16:50:51;17.80;68.50
48734;DHT22;34530;52.084;5.146;2023-03-23T16:53:17;17.80;68.50
48734;DHT22;34530;52.084;5.146;2023-03-23T16:55:43;17.80;68.50
48734;DHT22;34530;52.084;5.146;2023-03-23T16:58:15;17.80;68.50
48734;DHT22;34530;52.084;5.146;2023-03-23T17:00:42;17.80;68.60
48734;DHT22;34530;52.084;5.146;2023-03-23T17:03:09;17.80;68.50
48734;DHT22;34530;52.084;5.146;2023-03-23T17:05:36;17.80;68.50
48734;DHT22;34530;52.084;5.146;2023-03-23T17:08:02;17.80;68.60
48734;DHT22;34530;52.084;5.146;2023-03-23T17:10:29;17.80;68.60
48734;DHT22;34530;52.084;5.146;2023-03-23T17:12:55;17.80;68.60
48734;DHT22;34530;52.084;5.146;2023-03-23T17:15:21;17.80;68.50
48734;DHT22;34530;52.084;5.146;2023-03-23T17:17:48;17.80;68.60
48734;DHT22;34530;52.084;5.146;2023-03-23T17:20:14;17.80;68.60
48734;DHT22;34530;52.084;5.146;2023-03-23T17:22:40;17.80;68.60
48734;DHT22;34530;52.084;5.146;2023-03-23T17:25:07;17.80;68.60
48734;DHT22;34530;52.084;5.146;2023-03-23T17:27:33;17.80;68.60
48734;DHT22;34530;52.084;5.146;2023-03-23T17:29:59;17.80;68.60
48734;DHT22;34530;52.084;5.146;2023-03-23T17:32:24;17.80;68.60
48734;DHT22;34530;52.084;5.146;2023-03-23T17:34:50;17.80;68.60